Pagina principale
METAR-TAF:

METAR-TAF

Aeroporti :

Bologna, Italia

Aeroporto di Bologna-Borgo Panigale

latitudine: 44-32N, longitudine: 011-18E, altezza: 36 m

Osservazione

Il bollettino è stato emesso 20 minuti fa, alle 07:50 UTC
Vento 5 kt da sud
Temperature 23°C
Umidità 41%
Pressione 1021 hPa
Visibilità 10 km o più
nessuna nube inferiore a 1500 m e nessun cumulonembo

METAR: LIPE 270750Z 18005KT CAVOK 23/09 Q1021

Ora: 10:10 (08:10 UTC)

Previsione

Il bollettino è stato emesso 3 ore e 10 minuti fa, alle 05:00 UTC
Previsione valida dal 27 alle 06 UTC al 28 alle 06 UTC
Vento 6 kt da direzioni variabili
Visibilità 10 km o più
nessuna nube inferiore a 1500 m e nessun cumulonembo
Evoluzione graduale
dal 27 alle 10 UTC al 27 alle 12 UTC
Vento 10 kt da est
Evoluzione graduale
dal 27 alle 15 UTC al 27 alle 18 UTC
Vento 6 kt da direzioni variabili

TAF: LIPE 270500Z 2706/2806 VRB06KT CAVOK BECMG 2710/2712 09010KT BECMG 2715/2718 VRB06KT

Osservazioni e previsioni meteorologiche di più di 4000 aeroporti (messaggi METAR e TAF).

Le stazioni disponibili sono rappresentate dai dischi gialli e rossi sulla carta.

Puntare il mouse per vedere il nome della stazione.

Clicca sopra per visualizzare le osservazioni e previsioni meteorologiche.

Per cambiare la mappa : fare clic sui pulsanti verdi con una croce nera per ingrandire, il pulsante verde con un trattino per diminuire, o sulla freccia verde per le mappe adiacenti.


METAR-TAF: